Stewartville, MN

8:22 PM CDT on April 19, 2015 (GMT -0500)
KMNSTEWA3 | | Change Station
CLOSE
Current Station
Personal Weather Station
Location: Stewartville, MN
Elevation: 1253 ft
Nearby Weather Stations

Elev 1253 ft 43.84 °N, 92.48 °W | Updated 11 minutes ago

Rain
Rain
46.9 °F
Feels Like 41 °F
N
13.0
Wind Variable Wind from NW
Gusts 18.0 mph

Today
High -- | Low -- °F
--% Chance of Precip.
Yesterday
High -- | Low -- °F
Precip. -- in
6:20 AM 7:58 PM
New Moon, 2% visible
Pressure 29.56 in
Visibility 8.0 miles
Clouds Overcast 900 ft
Windchill 41 °F
Dew Point 45 °F
Humidity 92%
Rainfall 0.46 in
Snow Depth Not available.
UV 0 out of 12
Pollen 3.70 out of 12
Air Quality Not available.
Flu Activity Local Activity
SPECI KRST 200106Z 31017G24KT 8SM -RA OVC009 09/07 A2956 RMK AO2 CIG 006V013 P0000 T00890072 $

More Conditions Fewer Conditions

Pressure 29.56 in
Visibility 8.0 miles
Clouds Overcast 900 ft
Windchill 41 °F
Dew Point 45 °F
Humidity 92%
Rainfall 0.46 in
Snow Depth Not available.
UV 0 out of 12
Pollen 3.70 out of 12
Air Quality Not available.
Flu Activity Local Activity
SPECI KRST 200106Z 31017G24KT 8SM -RA OVC009 09/07 A2956 RMK AO2 CIG 006V013 P0000 T00890072 $

More Conditions Fewer Conditions

10-Day Weather Forecast

Almanac

Astronomy

Apr. 19, 2015 Rise Set
Actual Time
Civil Twilight
Nautical Twilight
Astronomical Twilight
Moon
Length of Visible Light
Length of Day
Tomorrow will be .
, % of the Moon is Illuminated

Today's Extremes

State Highs State Lows

Community

WunderPhotos

Upload Photos

1,815,083 photos uploaded!

WunderBlogs® & News

Nearby

Air Quality

  Air Quality AQ Index Pollutant
Not available.

Snow Depth

Station Depth Elevation

Earthquake Activity

City Distance Mag. Time & Date
Minimum magnitude displayed is 2.5.

Coastal Water Temperatures

Place Temperature

Stations

Nearby Weather Stations

Station Location Temp. Windchill Dew Point Humidity Wind Precip. Elev Updated Type